Date,TemperatureHighF,TemperatureAvgF,TemperatureLowF,DewpointHighF,DewpointAvgF,DewpointLowF,HumidityHigh,HumidityAvg,HumidityLow,PressureMaxIn,PressureMinIn,WindSpeedMaxMPH,WindSpeedAvgMPH,GustSpeedMaxMPH,PrecipitationSumIn
2013-3-1,63.2,52.0,38.9,63.2,33.0,-39.6,100,67,2,30.26,30.11,24,4,24,0.00
2013-3-2,55.1,47.8,38.6,55.1,24.3,-42.4,100,58,2,30.33,30.21,31,7,31,0.00
2013-3-3,62.0,50.4,32.9,62.0,24.9,-44.2,100,50,2,30.27,30.00,25,3,25,0.00
2013-3-4,75.5,65.9,57.3,58.2,31.1,-21.4,78,40,2,30.00,29.79,49,12,49,0.00
2013-3-5,69.3,63.6,52.2,69.3,51.5,-29.4,100,75,2,30.27,29.80,28,10,30,0.00
2013-3-6,67.0,53.2,45.1,67.0,43.1,-33.6,100,82,2,30.39,30.21,26,4,26,0.00
2013-3-7,64.7,54.5,41.2,64.5,27.0,-28.6,100,48,2,30.27,30.17,19,3,19,0.00
2013-3-8,68.0,61.3,53.8,65.8,48.8,0.0,100,72,17,30.20,30.05,25,5,25,0.00
2013-3-9,72.7,67.0,61.8,66.3,50.4,-6.9,100,65,5,30.05,29.76,37,9,37,0.00
2013-3-10,68.6,63.0,55.0,68.6,53.9,-29.9,100,84,2,30.03,29.72,26,8,26,0.00
2013-3-11,61.0,53.2,43.8,61.0,41.7,-40.2,100,76,100,30.11,29.96,30,7,30,0.00
2013-3-12,67.5,52.0,36.7,67.3,32.3,-33.3,100,59,2,30.23,30.06,17,1,17,0.00
2013-3-13,68.8,55.6,44.3,68.6,45.1,-29.8,100,80,2,30.42,30.22,19,2,19,0.00
2013-3-14,69.0,57.0,43.9,68.6,45.7,-28.6,100,78,2,30.40,30.26,18,3,18,0.00
2013-3-15,73.2,62.4,52.0,68.5,31.6,-22.5,100,56,2,30.27,30.05,31,4,31,0.00
2013-3-16,74.3,66.1,58.9,69.6,40.7,-19.9,100,57,3,30.06,29.85,34,6,34,0.00
2013-3-17,75.7,69.0,63.9,73.2,57.8,-20.2,100,74,2,29.87,29.71,35,5,35,0.00
2013-3-18,81.3,71.8,67.0,75.3,52.4,-16.2,100,70,2,29.87,29.71,22,4,22,0.00
2013-3-19,71.7,67.1,63.2,69.8,40.7,-26.5,100,55,2,29.97,29.86,18,6,19,0.00
2013-3-20,72.2,63.9,53.6,72.2,44.6,-27.8,100,65,2,30.14,29.92,26,7,26,0.00
2013-3-21,70.3,62.0,50.1,66.3,32.1,-23.5,100,52,2,30.03,29.69,27,5,27,0.00
2013-3-22,77.8,71.3,66.5,77.3,62.2,-21.1,100,79,2,29.72,29.65,28,5,28,0.00
2013-3-23,75.0,70.0,63.4,75.0,66.5,-20.3,100,94,2,29.72,29.55,12,1,12,0.00
2013-3-24,66.0,57.9,48.8,66.0,54.2,-31.6,100,94,2,30.12,29.62,27,10,29,0.00
2013-3-25,60.1,50.9,42.5,60.1,42.2,0.0,100,81,96,30.35,30.11,20,5,20,0.00
2013-3-26,61.5,51.7,42.3,61.5,49.1,-39.0,100,95,5,30.46,30.29,19,4,19,0.00
2013-3-27,64.2,52.7,36.2,64.0,27.1,-31.6,100,52,2,30.35,30.21,22,3,22,0.00
2013-3-28,70.5,63.8,59.6,54.7,26.5,-22.7,83,34,2,30.25,30.18,24,4,24,0.00
2013-3-29,72.4,65.2,57.8,69.8,49.3,-24.8,100,68,2,30.21,30.12,21,4,21,0.00
2013-3-30,76.4,68.4,63.1,72.4,51.9,-19.1,100,72,2,30.13,29.96,28,4,28,0.00
2013-3-31,80.8,68.7,63.1,76.5,55.0,-16.2,100,79,2,29.97,29.84,29,4,29,0.00